sensor_id;sensor_type;location;lat;lon;timestamp;temperature;humidity
10654;DHT22;5375;51.250;6.776;2022-11-20T06:14:18;17.00;55.00
10654;DHT22;5375;51.250;6.776;2022-11-20T06:16:44;17.00;56.10
10654;DHT22;5375;51.250;6.776;2022-11-20T06:19:10;17.10;56.50
10654;DHT22;5375;51.250;6.776;2022-11-20T06:21:35;17.10;56.30
10654;DHT22;5375;51.250;6.776;2022-11-20T06:24:01;17.10;55.90
10654;DHT22;5375;51.250;6.776;2022-11-20T06:26:27;17.20;55.60
10654;DHT22;5375;51.250;6.776;2022-11-20T06:28:53;17.20;55.30
10654;DHT22;5375;51.250;6.776;2022-11-20T06:31:23;17.30;55.00
10654;DHT22;5375;51.250;6.776;2022-11-20T06:33:49;17.30;54.90
10654;DHT22;5375;51.250;6.776;2022-11-20T06:36:16;17.40;54.70
10654;DHT22;5375;51.250;6.776;2022-11-20T06:38:43;17.40;54.50
10654;DHT22;5375;51.250;6.776;2022-11-20T06:41:15;17.40;54.30
10654;DHT22;5375;51.250;6.776;2022-11-20T06:43:41;17.50;54.20
10654;DHT22;5375;51.250;6.776;2022-11-20T06:46:08;17.50;54.10
10654;DHT22;5375;51.250;6.776;2022-11-20T06:48:34;17.50;54.00
10654;DHT22;5375;51.250;6.776;2022-11-20T06:50:59;17.50;53.90
10654;DHT22;5375;51.250;6.776;2022-11-20T06:53:27;17.50;53.80
10654;DHT22;5375;51.250;6.776;2022-11-20T06:55:55;17.60;53.80
10654;DHT22;5375;51.250;6.776;2022-11-20T06:58:27;17.60;53.60
10654;DHT22;5375;51.250;6.776;2022-11-20T07:00:53;17.60;53.60
10654;DHT22;5375;51.250;6.776;2022-11-20T07:03:21;17.60;53.60
10654;DHT22;5375;51.250;6.776;2022-11-20T07:05:47;17.60;53.50
10654;DHT22;5375;51.250;6.776;2022-11-20T07:08:13;17.60;53.40
10654;DHT22;5375;51.250;6.776;2022-11-20T07:10:38;17.60;53.40
10654;DHT22;5375;51.250;6.776;2022-11-20T07:13:04;17.70;53.40
10654;DHT22;5375;51.250;6.776;2022-11-20T07:15:30;17.70;53.40
10654;DHT22;5375;51.250;6.776;2022-11-20T07:17:58;17.70;53.30
10654;DHT22;5375;51.250;6.776;2022-11-20T07:20:24;17.70;53.30
10654;DHT22;5375;51.250;6.776;2022-11-20T07:22:56;17.70;53.40
10654;DHT22;5375;51.250;6.776;2022-11-20T07:25:26;17.70;53.50
10654;DHT22;5375;51.250;6.776;2022-11-20T07:27:52;17.70;53.70
10654;DHT22;5375;51.250;6.776;2022-11-20T07:30:18;17.70;53.80
10654;DHT22;5375;51.250;6.776;2022-11-20T07:32:47;17.70;53.80
10654;DHT22;5375;51.250;6.776;2022-11-20T07:35:15;17.70;53.80
10654;DHT22;5375;51.250;6.776;2022-11-20T07:37:41;17.70;53.80
10654;DHT22;5375;51.250;6.776;2022-11-20T07:40:17;17.70;53.70
10654;DHT22;5375;51.250;6.776;2022-11-20T07:42:50;17.70;53.60
10654;DHT22;5375;51.250;6.776;2022-11-20T07:45:17;17.70;53.40
10654;DHT22;5375;51.250;6.776;2022-11-20T07:47:42;17.70;53.40
10654;DHT22;5375;51.250;6.776;2022-11-20T07:50:12;17.70;53.30
10654;DHT22;5375;51.250;6.776;2022-11-20T07:52:38;17.70;53.30
10654;DHT22;5375;51.250;6.776;2022-11-20T07:55:04;17.70;53.30
10654;DHT22;5375;51.250;6.776;2022-11-20T07:57:30;17.70;53.30
10654;DHT22;5375;51.250;6.776;2022-11-20T07:59:56;17.70;53.40
10654;DHT22;5375;51.250;6.776;2022-11-20T08:02:24;17.70;54.00
10654;DHT22;5375;51.250;6.776;2022-11-20T08:04:53;17.70;53.30
10654;DHT22;5375;51.250;6.776;2022-11-20T08:07:21;17.80;53.50
10654;DHT22;5375;51.250;6.776;2022-11-20T08:09:47;17.80;53.50
10654;DHT22;5375;51.250;6.776;2022-11-20T08:12:22;17.80;53.40
10654;DHT22;5375;51.250;6.776;2022-11-20T08:15:08;17.80;53.30
10654;DHT22;5375;51.250;6.776;2022-11-20T08:17:33;17.80;53.30
10654;DHT22;5375;51.250;6.776;2022-11-20T08:19:59;17.80;53.20
10654;DHT22;5375;51.250;6.776;2022-11-20T08:22:24;17.80;53.20
10654;DHT22;5375;51.250;6.776;2022-11-20T08:24:50;17.80;53.10
10654;DHT22;5375;51.250;6.776;2022-11-20T08:27:16;17.80;53.20
10654;DHT22;5375;51.250;6.776;2022-11-20T08:29:41;17.70;53.10
10654;DHT22;5375;51.250;6.776;2022-11-20T08:32:07;17.80;53.20
10654;DHT22;5375;51.250;6.776;2022-11-20T08:34:33;17.80;53.20
10654;DHT22;5375;51.250;6.776;2022-11-20T08:36:58;17.80;53.20
10654;DHT22;5375;51.250;6.776;2022-11-20T08:39:24;17.80;53.20
10654;DHT22;5375;51.250;6.776;2022-11-20T08:41:50;17.70;53.10
10654;DHT22;5375;51.250;6.776;2022-11-20T08:44:18;17.80;53.10
10654;DHT22;5375;51.250;6.776;2022-11-20T08:46:46;17.70;53.10
10654;DHT22;5375;51.250;6.776;2022-11-20T08:49:13;17.70;53.00
10654;DHT22;5375;51.250;6.776;2022-11-20T08:51:40;17.80;53.10
10654;DHT22;5375;51.250;6.776;2022-11-20T08:54:06;17.70;53.10
10654;DHT22;5375;51.250;6.776;2022-11-20T08:56:34;17.80;53.00
10654;DHT22;5375;51.250;6.776;2022-11-20T08:59:00;17.80;53.10
10654;DHT22;5375;51.250;6.776;2022-11-20T09:01:26;17.80;53.00
10654;DHT22;5375;51.250;6.776;2022-11-20T09:03:52;17.70;53.00
10654;DHT22;5375;51.250;6.776;2022-11-20T09:06:20;17.80;53.10
10654;DHT22;5375;51.250;6.776;2022-11-20T09:08:46;17.80;53.10
10654;DHT22;5375;51.250;6.776;2022-11-20T09:11:11;17.70;52.90
10654;DHT22;5375;51.250;6.776;2022-11-20T09:13:37;17.80;53.00
10654;DHT22;5375;51.250;6.776;2022-11-20T09:16:08;17.70;52.90
10654;DHT22;5375;51.250;6.776;2022-11-20T09:18:35;17.80;52.90
10654;DHT22;5375;51.250;6.776;2022-11-20T09:21:13;17.80;53.00
10654;DHT22;5375;51.250;6.776;2022-11-20T09:23:39;17.80;53.00
10654;DHT22;5375;51.250;6.776;2022-11-20T09:26:07;17.70;53.00
10654;DHT22;5375;51.250;6.776;2022-11-20T09:28:34;17.70;52.90
10654;DHT22;5375;51.250;6.776;2022-11-20T09:30:59;17.80;53.00
10654;DHT22;5375;51.250;6.776;2022-11-20T09:33:26;17.80;53.00
10654;DHT22;5375;51.250;6.776;2022-11-20T09:35:51;17.80;53.00
10654;DHT22;5375;51.250;6.776;2022-11-20T09:38:17;17.80;53.00
10654;DHT22;5375;51.250;6.776;2022-11-20T09:40:58;17.80;53.00
10654;DHT22;5375;51.250;6.776;2022-11-20T09:43:58;17.80;52.90
10654;DHT22;5375;51.250;6.776;2022-11-20T09:46:40;17.80;53.00
10654;DHT22;5375;51.250;6.776;2022-11-20T09:49:36;17.80;53.00
10654;DHT22;5375;51.250;6.776;2022-11-20T09:54:43;17.80;53.10
10654;DHT22;5375;51.250;6.776;2022-11-20T09:57:14;17.70;52.90
10654;DHT22;5375;51.250;6.776;2022-11-20T09:59:45;17.80;53.00
10654;DHT22;5375;51.250;6.776;2022-11-20T10:05:13;17.80;53.00
10654;DHT22;5375;51.250;6.776;2022-11-20T10:16:03;17.70;52.90
10654;DHT22;5375;51.250;6.776;2022-11-20T10:30:12;17.80;53.00
10654;DHT22;5375;51.250;6.776;2022-11-20T10:32:41;17.80;53.00
10654;DHT22;5375;51.250;6.776;2022-11-20T10:37:43;17.80;53.00
10654;DHT22;5375;51.250;6.776;2022-11-20T10:40:25;17.80;53.00
10654;DHT22;5375;51.250;6.776;2022-11-20T10:43:07;17.80;53.00
10654;DHT22;5375;51.250;6.776;2022-11-20T10:48:25;17.80;52.90
10654;DHT22;5375;51.250;6.776;2022-11-20T11:01:49;17.80;53.00
10654;DHT22;5375;51.250;6.776;2022-11-20T11:04:38;17.80;53.10
10654;DHT22;5375;51.250;6.776;2022-11-20T11:09:39;17.80;53.00
10654;DHT22;5375;51.250;6.776;2022-11-20T11:12:08;17.80;53.00
10654;DHT22;5375;51.250;6.776;2022-11-20T11:14:52;17.80;53.00
10654;DHT22;5375;51.250;6.776;2022-11-20T11:17:23;17.80;52.90
10654;DHT22;5375;51.250;6.776;2022-11-20T11:20:17;17.80;52.90
10654;DHT22;5375;51.250;6.776;2022-11-20T11:23:05;17.80;52.80
10654;DHT22;5375;51.250;6.776;2022-11-20T11:25:32;17.80;52.90
10654;DHT22;5375;51.250;6.776;2022-11-20T11:28:24;17.80;53.00
10654;DHT22;5375;51.250;6.776;2022-11-20T11:30:52;17.80;52.90
10654;DHT22;5375;51.250;6.776;2022-11-20T11:33:31;17.80;52.90
10654;DHT22;5375;51.250;6.776;2022-11-20T11:36:04;17.80;52.80
10654;DHT22;5375;51.250;6.776;2022-11-20T11:38:43;17.80;52.80
10654;DHT22;5375;51.250;6.776;2022-11-20T11:41:15;17.80;52.70
10654;DHT22;5375;51.250;6.776;2022-11-20T11:43:55;17.80;52.70
10654;DHT22;5375;51.250;6.776;2022-11-20T11:46:49;17.80;52.50
10654;DHT22;5375;51.250;6.776;2022-11-20T11:49:17;17.80;52.50
10654;DHT22;5375;51.250;6.776;2022-11-20T11:51:59;17.80;52.50
10654;DHT22;5375;51.250;6.776;2022-11-20T11:54:57;17.80;52.50
10654;DHT22;5375;51.250;6.776;2022-11-20T12:00:15;17.80;52.40
10654;DHT22;5375;51.250;6.776;2022-11-20T12:05:26;17.80;52.40
10654;DHT22;5375;51.250;6.776;2022-11-20T12:08:03;17.90;52.40
10654;DHT22;5375;51.250;6.776;2022-11-20T12:10:54;17.90;52.30
10654;DHT22;5375;51.250;6.776;2022-11-20T12:15:59;17.90;52.40
10654;DHT22;5375;51.250;6.776;2022-11-20T12:18:25;17.90;52.50
10654;DHT22;5375;51.250;6.776;2022-11-20T12:23:53;17.90;52.40
10654;DHT22;5375;51.250;6.776;2022-11-20T12:26:45;17.90;52.40
10654;DHT22;5375;51.250;6.776;2022-11-20T12:29:22;17.90;52.30
10654;DHT22;5375;51.250;6.776;2022-11-20T12:37:30;18.00;52.70
10654;DHT22;5375;51.250;6.776;2022-11-20T12:42:51;18.00;52.60
10654;DHT22;5375;51.250;6.776;2022-11-20T12:53:54;18.00;52.70
10654;DHT22;5375;51.250;6.776;2022-11-20T13:01:52;18.10;52.90
10654;DHT22;5375;51.250;6.776;2022-11-20T13:07:10;18.00;53.10
10654;DHT22;5375;51.250;6.776;2022-11-20T13:09:46;18.10;53.20
10654;DHT22;5375;51.250;6.776;2022-11-20T13:12:23;18.00;53.20
10654;DHT22;5375;51.250;6.776;2022-11-20T13:14:55;18.10;53.30
10654;DHT22;5375;51.250;6.776;2022-11-20T13:20:15;18.10;53.30
10654;DHT22;5375;51.250;6.776;2022-11-20T13:22:50;18.10;53.50
10654;DHT22;5375;51.250;6.776;2022-11-20T13:25:31;18.10;53.50
10654;DHT22;5375;51.250;6.776;2022-11-20T13:28:03;18.10;53.50
10654;DHT22;5375;51.250;6.776;2022-11-20T13:30:30;18.10;53.60
10654;DHT22;5375;51.250;6.776;2022-11-20T13:33:09;18.10;53.60
10654;DHT22;5375;51.250;6.776;2022-11-20T13:35:58;18.10;53.60
10654;DHT22;5375;51.250;6.776;2022-11-20T13:38:24;18.10;53.60
10654;DHT22;5375;51.250;6.776;2022-11-20T13:40:57;18.20;53.70
10654;DHT22;5375;51.250;6.776;2022-11-20T13:43:37;18.20;53.70
10654;DHT22;5375;51.250;6.776;2022-11-20T13:46:09;18.20;53.60
10654;DHT22;5375;51.250;6.776;2022-11-20T13:48:43;18.20;53.60
10654;DHT22;5375;51.250;6.776;2022-11-20T13:51:43;18.20;53.60
10654;DHT22;5375;51.250;6.776;2022-11-20T13:54:34;18.20;53.50
10654;DHT22;5375;51.250;6.776;2022-11-20T14:02:52;18.20;53.60
10654;DHT22;5375;51.250;6.776;2022-11-20T14:05:29;18.20;53.50
10654;DHT22;5375;51.250;6.776;2022-11-20T14:07:59;18.10;53.50
10654;DHT22;5375;51.250;6.776;2022-11-20T14:10:29;18.20;53.50
10654;DHT22;5375;51.250;6.776;2022-11-20T14:12:55;18.20;53.50
10654;DHT22;5375;51.250;6.776;2022-11-20T14:15:30;18.20;53.60
10654;DHT22;5375;51.250;6.776;2022-11-20T14:17:56;18.20;53.70
10654;DHT22;5375;51.250;6.776;2022-11-20T14:20:25;18.20;53.80
10654;DHT22;5375;51.250;6.776;2022-11-20T14:22:53;18.20;54.00
10654;DHT22;5375;51.250;6.776;2022-11-20T14:25:24;18.20;54.80
10654;DHT22;5375;51.250;6.776;2022-11-20T14:28:00;18.20;54.20
10654;DHT22;5375;51.250;6.776;2022-11-20T14:30:43;18.20;54.40
10654;DHT22;5375;51.250;6.776;2022-11-20T14:33:11;18.30;54.50
10654;DHT22;5375;51.250;6.776;2022-11-20T14:35:53;18.20;54.50
10654;DHT22;5375;51.250;6.776;2022-11-20T14:38:23;18.30;54.70
10654;DHT22;5375;51.250;6.776;2022-11-20T14:40:49;18.30;54.90
10654;DHT22;5375;51.250;6.776;2022-11-20T14:43:26;18.20;54.80
10654;DHT22;5375;51.250;6.776;2022-11-20T14:46:07;18.30;54.90
10654;DHT22;5375;51.250;6.776;2022-11-20T14:48:48;18.20;54.70
10654;DHT22;5375;51.250;6.776;2022-11-20T14:51:30;18.30;54.80
10654;DHT22;5375;51.250;6.776;2022-11-20T14:54:11;18.30;54.90
10654;DHT22;5375;51.250;6.776;2022-11-20T14:56:38;18.30;54.90
10654;DHT22;5375;51.250;6.776;2022-11-20T14:59:03;18.30;54.90
10654;DHT22;5375;51.250;6.776;2022-11-20T15:01:30;18.30;55.00
10654;DHT22;5375;51.250;6.776;2022-11-20T15:04:09;18.30;55.50
10654;DHT22;5375;51.250;6.776;2022-11-20T15:06:36;18.30;54.80
10654;DHT22;5375;51.250;6.776;2022-11-20T15:09:03;18.30;54.80
10654;DHT22;5375;51.250;6.776;2022-11-20T15:11:31;18.30;54.90
10654;DHT22;5375;51.250;6.776;2022-11-20T15:14:00;18.30;54.80
10654;DHT22;5375;51.250;6.776;2022-11-20T15:16:28;18.30;54.80
10654;DHT22;5375;51.250;6.776;2022-11-20T15:18:53;18.30;54.80
10654;DHT22;5375;51.250;6.776;2022-11-20T15:21:19;18.30;54.80
10654;DHT22;5375;51.250;6.776;2022-11-20T15:23:46;18.30;54.80
10654;DHT22;5375;51.250;6.776;2022-11-20T15:26:14;18.30;54.80
10654;DHT22;5375;51.250;6.776;2022-11-20T15:28:42;18.30;54.90
10654;DHT22;5375;51.250;6.776;2022-11-20T15:31:12;18.30;54.80
10654;DHT22;5375;51.250;6.776;2022-11-20T15:33:38;18.40;54.90
10654;DHT22;5375;51.250;6.776;2022-11-20T15:36:04;18.40;54.90
10654;DHT22;5375;51.250;6.776;2022-11-20T15:38:29;18.40;54.90
10654;DHT22;5375;51.250;6.776;2022-11-20T15:40:55;18.40;54.90
10654;DHT22;5375;51.250;6.776;2022-11-20T15:43:21;18.40;54.90
10654;DHT22;5375;51.250;6.776;2022-11-20T15:45:56;18.40;55.00
10654;DHT22;5375;51.250;6.776;2022-11-20T15:48:27;18.40;55.00
10654;DHT22;5375;51.250;6.776;2022-11-20T15:53:31;18.40;55.00
10654;DHT22;5375;51.250;6.776;2022-11-20T15:55:57;18.40;54.90
10654;DHT22;5375;51.250;6.776;2022-11-20T15:58:26;18.40;55.00
10654;DHT22;5375;51.250;6.776;2022-11-20T16:00:55;18.40;55.00
10654;DHT22;5375;51.250;6.776;2022-11-20T16:03:21;18.40;55.00
10654;DHT22;5375;51.250;6.776;2022-11-20T16:05:47;18.40;54.90
10654;DHT22;5375;51.250;6.776;2022-11-20T16:08:13;18.40;54.90
10654;DHT22;5375;51.250;6.776;2022-11-20T16:10:39;18.40;54.90
10654;DHT22;5375;51.250;6.776;2022-11-20T16:13:13;18.40;55.50
10654;DHT22;5375;51.250;6.776;2022-11-20T16:15:59;18.40;54.90
10654;DHT22;5375;51.250;6.776;2022-11-20T16:18:25;18.40;55.00
10654;DHT22;5375;51.250;6.776;2022-11-20T16:20:52;18.40;55.00
10654;DHT22;5375;51.250;6.776;2022-11-20T16:23:18;18.40;55.10
10654;DHT22;5375;51.250;6.776;2022-11-20T16:25:46;18.40;55.00
10654;DHT22;5375;51.250;6.776;2022-11-20T16:28:12;18.40;55.00
10654;DHT22;5375;51.250;6.776;2022-11-20T16:30:38;18.40;55.00
10654;DHT22;5375;51.250;6.776;2022-11-20T16:33:09;18.40;55.00
10654;DHT22;5375;51.250;6.776;2022-11-20T16:35:35;18.40;54.90
10654;DHT22;5375;51.250;6.776;2022-11-20T16:38:00;18.40;54.90
10654;DHT22;5375;51.250;6.776;2022-11-20T16:40:26;18.40;54.90
10654;DHT22;5375;51.250;6.776;2022-11-20T16:42:52;18.40;54.90
10654;DHT22;5375;51.250;6.776;2022-11-20T16:45:18;18.40;54.80
10654;DHT22;5375;51.250;6.776;2022-11-20T16:47:44;18.40;54.80
10654;DHT22;5375;51.250;6.776;2022-11-20T16:50:09;18.40;54.80
10654;DHT22;5375;51.250;6.776;2022-11-20T16:52:35;18.40;54.80
10654;DHT22;5375;51.250;6.776;2022-11-20T16:55:01;18.40;54.70
10654;DHT22;5375;51.250;6.776;2022-11-20T16:57:31;18.40;54.70
10654;DHT22;5375;51.250;6.776;2022-11-20T16:59:58;18.40;54.80
10654;DHT22;5375;51.250;6.776;2022-11-20T17:02:24;18.40;54.70
10654;DHT22;5375;51.250;6.776;2022-11-20T17:04:51;18.40;54.70
10654;DHT22;5375;51.250;6.776;2022-11-20T17:07:16;18.40;54.70
10654;DHT22;5375;51.250;6.776;2022-11-20T17:09:42;18.40;54.70
10654;DHT22;5375;51.250;6.776;2022-11-20T17:12:08;18.40;54.70
10654;DHT22;5375;51.250;6.776;2022-11-20T17:14:34;18.40;54.70
10654;DHT22;5375;51.250;6.776;2022-11-20T17:16:59;18.40;54.70
10654;DHT22;5375;51.250;6.776;2022-11-20T17:19:25;18.40;54.60
10654;DHT22;5375;51.250;6.776;2022-11-20T17:21:51;18.40;54.60
10654;DHT22;5375;51.250;6.776;2022-11-20T17:24:16;18.40;54.60
10654;DHT22;5375;51.250;6.776;2022-11-20T17:26:43;18.40;54.60
10654;DHT22;5375;51.250;6.776;2022-11-20T17:29:15;18.40;54.60
10654;DHT22;5375;51.250;6.776;2022-11-20T17:31:42;18.40;54.60
10654;DHT22;5375;51.250;6.776;2022-11-20T17:34:11;18.40;54.60
10654;DHT22;5375;51.250;6.776;2022-11-20T17:36:37;18.40;54.60
10654;DHT22;5375;51.250;6.776;2022-11-20T17:39:13;18.40;54.60
10654;DHT22;5375;51.250;6.776;2022-11-20T17:41:39;18.40;54.60
10654;DHT22;5375;51.250;6.776;2022-11-20T17:44:08;18.40;54.50
10654;DHT22;5375;51.250;6.776;2022-11-20T17:46:34;18.40;54.60
10654;DHT22;5375;51.250;6.776;2022-11-20T17:49:01;18.40;54.60
10654;DHT22;5375;51.250;6.776;2022-11-20T17:51:29;18.40;54.60
10654;DHT22;5375;51.250;6.776;2022-11-20T17:53:57;18.40;54.60
10654;DHT22;5375;51.250;6.776;2022-11-20T17:56:23;18.40;54.60
10654;DHT22;5375;51.250;6.776;2022-11-20T17:59:10;18.40;54.50
10654;DHT22;5375;51.250;6.776;2022-11-20T18:01:36;18.40;54.50
10654;DHT22;5375;51.250;6.776;2022-11-20T18:04:03;18.40;54.60
10654;DHT22;5375;51.250;6.776;2022-11-20T18:06:30;18.40;54.60
10654;DHT22;5375;51.250;6.776;2022-11-20T18:08:59;18.50;54.60
10654;DHT22;5375;51.250;6.776;2022-11-20T18:11:28;18.40;54.50
10654;DHT22;5375;51.250;6.776;2022-11-20T18:13:56;18.40;54.50
10654;DHT22;5375;51.250;6.776;2022-11-20T18:16:52;18.40;54.50
10654;DHT22;5375;51.250;6.776;2022-11-20T18:19:23;18.40;54.60
10654;DHT22;5375;51.250;6.776;2022-11-20T18:21:50;18.40;54.70
10654;DHT22;5375;51.250;6.776;2022-11-20T18:24:16;18.40;54.80
10654;DHT22;5375;51.250;6.776;2022-11-20T18:26:41;18.40;55.00
10654;DHT22;5375;51.250;6.776;2022-11-20T18:29:08;18.50;55.00
10654;DHT22;5375;51.250;6.776;2022-11-20T18:31:34;18.40;55.00
10654;DHT22;5375;51.250;6.776;2022-11-20T18:33:59;18.40;55.00
10654;DHT22;5375;51.250;6.776;2022-11-20T18:36:27;18.50;55.20
10654;DHT22;5375;51.250;6.776;2022-11-20T18:38:55;18.40;55.20
10654;DHT22;5375;51.250;6.776;2022-11-20T18:41:24;18.50;55.40
10654;DHT22;5375;51.250;6.776;2022-11-20T18:44:21;18.50;55.50
10654;DHT22;5375;51.250;6.776;2022-11-20T18:47:07;18.50;55.60
10654;DHT22;5375;51.250;6.776;2022-11-20T18:49:33;18.50;55.60
10654;DHT22;5375;51.250;6.776;2022-11-20T18:51:59;18.50;55.60
10654;DHT22;5375;51.250;6.776;2022-11-20T18:54:24;18.50;55.60
10654;DHT22;5375;51.250;6.776;2022-11-20T18:56:50;18.50;55.60
10654;DHT22;5375;51.250;6.776;2022-11-20T18:59:17;18.50;55.60
10654;DHT22;5375;51.250;6.776;2022-11-20T19:01:44;18.50;55.60
10654;DHT22;5375;51.250;6.776;2022-11-20T19:04:11;18.50;55.70
10654;DHT22;5375;51.250;6.776;2022-11-20T19:06:38;18.50;55.80
10654;DHT22;5375;51.250;6.776;2022-11-20T19:09:05;18.50;55.90
10654;DHT22;5375;51.250;6.776;2022-11-20T19:11:33;18.50;56.00
10654;DHT22;5375;51.250;6.776;2022-11-20T19:13:59;18.60;56.10
10654;DHT22;5375;51.250;6.776;2022-11-20T19:16:24;18.60;56.10
10654;DHT22;5375;51.250;6.776;2022-11-20T19:18:50;18.50;56.10
10654;DHT22;5375;51.250;6.776;2022-11-20T19:21:21;18.60;56.80
10654;DHT22;5375;51.250;6.776;2022-11-20T19:23:48;18.60;56.20
10654;DHT22;5375;51.250;6.776;2022-11-20T19:26:15;18.60;56.20
10654;DHT22;5375;51.250;6.776;2022-11-20T19:28:40;18.60;56.20
10654;DHT22;5375;51.250;6.776;2022-11-20T19:31:08;18.60;56.20
10654;DHT22;5375;51.250;6.776;2022-11-20T19:33:35;18.60;56.20
10654;DHT22;5375;51.250;6.776;2022-11-20T19:38:40;18.60;56.10
10654;DHT22;5375;51.250;6.776;2022-11-20T19:41:07;18.60;56.20
10654;DHT22;5375;51.250;6.776;2022-11-20T19:43:33;18.60;56.10
10654;DHT22;5375;51.250;6.776;2022-11-20T19:45:58;18.60;56.10
10654;DHT22;5375;51.250;6.776;2022-11-20T19:48:24;18.60;56.20
10654;DHT22;5375;51.250;6.776;2022-11-20T19:50:50;18.60;56.10
10654;DHT22;5375;51.250;6.776;2022-11-20T19:53:15;18.60;56.20
10654;DHT22;5375;51.250;6.776;2022-11-20T19:56:02;18.60;56.20
10654;DHT22;5375;51.250;6.776;2022-11-20T19:58:28;18.60;56.10
10654;DHT22;5375;51.250;6.776;2022-11-20T20:00:54;18.60;56.20
10654;DHT22;5375;51.250;6.776;2022-11-20T20:03:19;18.60;56.30
10654;DHT22;5375;51.250;6.776;2022-11-20T20:05:45;18.60;56.20
10654;DHT22;5375;51.250;6.776;2022-11-20T20:08:12;18.60;56.30
10654;DHT22;5375;51.250;6.776;2022-11-20T20:10:38;18.60;56.30
10654;DHT22;5375;51.250;6.776;2022-11-20T20:13:04;18.60;56.40
10654;DHT22;5375;51.250;6.776;2022-11-20T20:15:30;18.60;56.50
10654;DHT22;5375;51.250;6.776;2022-11-20T20:17:56;18.60;56.50
10654;DHT22;5375;51.250;6.776;2022-11-20T20:20:21;18.60;56.60
10654;DHT22;5375;51.250;6.776;2022-11-20T20:22:47;18.60;56.60
10654;DHT22;5375;51.250;6.776;2022-11-20T20:25:13;18.60;56.60
10654;DHT22;5375;51.250;6.776;2022-11-20T20:27:39;18.60;56.60
10654;DHT22;5375;51.250;6.776;2022-11-20T20:30:06;18.60;56.60
10654;DHT22;5375;51.250;6.776;2022-11-20T20:32:32;18.60;56.70
10654;DHT22;5375;51.250;6.776;2022-11-20T20:34:58;18.60;56.70
10654;DHT22;5375;51.250;6.776;2022-11-20T20:37:24;18.60;56.70
10654;DHT22;5375;51.250;6.776;2022-11-20T20:39:50;18.60;56.70
10654;DHT22;5375;51.250;6.776;2022-11-20T20:42:15;18.70;57.30
10654;DHT22;5375;51.250;6.776;2022-11-20T20:44:41;18.60;56.60
10654;DHT22;5375;51.250;6.776;2022-11-20T20:47:40;18.60;56.60
10654;DHT22;5375;51.250;6.776;2022-11-20T20:50:08;18.60;56.70
10654;DHT22;5375;51.250;6.776;2022-11-20T20:52:35;18.60;56.60
10654;DHT22;5375;51.250;6.776;2022-11-20T20:55:01;18.60;56.50
10654;DHT22;5375;51.250;6.776;2022-11-20T20:57:26;18.60;56.50
10654;DHT22;5375;51.250;6.776;2022-11-20T20:59:53;18.60;56.50
10654;DHT22;5375;51.250;6.776;2022-11-20T21:02:20;18.60;56.50
10654;DHT22;5375;51.250;6.776;2022-11-20T21:04:46;18.60;56.60
10654;DHT22;5375;51.250;6.776;2022-11-20T21:07:11;18.60;56.50
10654;DHT22;5375;51.250;6.776;2022-11-20T21:09:37;18.60;56.50
10654;DHT22;5375;51.250;6.776;2022-11-20T21:12:03;18.60;56.50
10654;DHT22;5375;51.250;6.776;2022-11-20T21:14:29;18.60;56.50
10654;DHT22;5375;51.250;6.776;2022-11-20T21:16:54;18.60;56.50
10654;DHT22;5375;51.250;6.776;2022-11-20T21:19:20;18.60;56.40
10654;DHT22;5375;51.250;6.776;2022-11-20T21:21:45;18.60;56.40
10654;DHT22;5375;51.250;6.776;2022-11-20T21:24:33;18.60;56.40
10654;DHT22;5375;51.250;6.776;2022-11-20T21:27:04;18.60;56.40
10654;DHT22;5375;51.250;6.776;2022-11-20T21:29:30;18.60;56.50
10654;DHT22;5375;51.250;6.776;2022-11-20T21:31:56;18.60;56.40
10654;DHT22;5375;51.250;6.776;2022-11-20T21:34:23;18.60;56.40
10654;DHT22;5375;51.250;6.776;2022-11-20T21:36:49;18.60;56.40
10654;DHT22;5375;51.250;6.776;2022-11-20T21:39:15;18.60;56.40
10654;DHT22;5375;51.250;6.776;2022-11-20T21:41:41;18.60;56.40
10654;DHT22;5375;51.250;6.776;2022-11-20T21:44:12;18.60;56.40
10654;DHT22;5375;51.250;6.776;2022-11-20T21:46:40;18.60;56.40
10654;DHT22;5375;51.250;6.776;2022-11-20T21:49:06;18.60;56.40
10654;DHT22;5375;51.250;6.776;2022-11-20T21:51:32;18.60;56.40
10654;DHT22;5375;51.250;6.776;2022-11-20T21:53:58;18.60;56.30
10654;DHT22;5375;51.250;6.776;2022-11-20T21:56:25;18.60;56.30
10654;DHT22;5375;51.250;6.776;2022-11-20T21:58:51;18.60;56.30
10654;DHT22;5375;51.250;6.776;2022-11-20T22:01:18;18.50;56.30
10654;DHT22;5375;51.250;6.776;2022-11-20T22:03:49;18.50;56.30
10654;DHT22;5375;51.250;6.776;2022-11-20T22:06:15;18.60;56.30
10654;DHT22;5375;51.250;6.776;2022-11-20T22:08:41;18.60;56.30
10654;DHT22;5375;51.250;6.776;2022-11-20T22:11:08;18.60;56.30
10654;DHT22;5375;51.250;6.776;2022-11-20T22:13:34;18.50;56.20
10654;DHT22;5375;51.250;6.776;2022-11-20T22:16:19;18.50;56.20
10654;DHT22;5375;51.250;6.776;2022-11-20T22:18:49;18.50;56.20
10654;DHT22;5375;51.250;6.776;2022-11-20T22:21:16;18.50;56.20
10654;DHT22;5375;51.250;6.776;2022-11-20T22:23:42;18.50;56.20
10654;DHT22;5375;51.250;6.776;2022-11-20T22:26:10;18.50;56.20
10654;DHT22;5375;51.250;6.776;2022-11-20T22:28:36;18.50;56.20
10654;DHT22;5375;51.250;6.776;2022-11-20T22:31:04;18.50;56.20
10654;DHT22;5375;51.250;6.776;2022-11-20T22:33:30;18.50;56.20
10654;DHT22;5375;51.250;6.776;2022-11-20T22:36:06;18.50;56.20
10654;DHT22;5375;51.250;6.776;2022-11-20T22:38:32;18.50;56.20
10654;DHT22;5375;51.250;6.776;2022-11-20T22:41:02;18.50;56.20
10654;DHT22;5375;51.250;6.776;2022-11-20T22:43:28;18.50;56.10
10654;DHT22;5375;51.250;6.776;2022-11-20T22:46:11;18.50;56.10
10654;DHT22;5375;51.250;6.776;2022-11-20T22:48:39;18.50;56.10
10654;DHT22;5375;51.250;6.776;2022-11-20T22:51:08;18.50;56.10
10654;DHT22;5375;51.250;6.776;2022-11-20T22:53:35;18.50;56.10
10654;DHT22;5375;51.250;6.776;2022-11-20T22:56:01;18.50;56.10
10654;DHT22;5375;51.250;6.776;2022-11-20T22:58:31;18.50;56.00
10654;DHT22;5375;51.250;6.776;2022-11-20T23:01:23;18.50;56.10
10654;DHT22;5375;51.250;6.776;2022-11-20T23:03:57;18.50;56.00
10654;DHT22;5375;51.250;6.776;2022-11-20T23:06:24;18.50;56.00
10654;DHT22;5375;51.250;6.776;2022-11-20T23:08:50;18.50;56.00
10654;DHT22;5375;51.250;6.776;2022-11-20T23:11:18;18.50;56.00
10654;DHT22;5375;51.250;6.776;2022-11-20T23:13:45;18.50;56.00
10654;DHT22;5375;51.250;6.776;2022-11-20T23:16:18;18.50;55.90
10654;DHT22;5375;51.250;6.776;2022-11-20T23:18:47;18.50;55.80
10654;DHT22;5375;51.250;6.776;2022-11-20T23:21:15;18.40;55.80
10654;DHT22;5375;51.250;6.776;2022-11-20T23:23:42;18.50;55.80
10654;DHT22;5375;51.250;6.776;2022-11-20T23:26:10;18.50;55.80
10654;DHT22;5375;51.250;6.776;2022-11-20T23:28:38;18.50;55.90
10654;DHT22;5375;51.250;6.776;2022-11-20T23:31:04;18.50;55.80
10654;DHT22;5375;51.250;6.776;2022-11-20T23:33:30;18.40;55.70
10654;DHT22;5375;51.250;6.776;2022-11-20T23:35:56;18.40;56.30
10654;DHT22;5375;51.250;6.776;2022-11-20T23:38:22;18.50;55.70
10654;DHT22;5375;51.250;6.776;2022-11-20T23:40:51;18.40;55.70
10654;DHT22;5375;51.250;6.776;2022-11-20T23:43:18;18.40;55.70
10654;DHT22;5375;51.250;6.776;2022-11-20T23:45:49;18.40;55.70
10654;DHT22;5375;51.250;6.776;2022-11-20T23:48:15;18.40;55.70